Time;durP1;ratioP1;P1;durP2;ratioP2;P2;SDS_P1;SDS_P2;PMS_P1;PMS_P2;Temp;Humidity;BMP_temperature;BMP_pressure;BME280_temperature;BME280_humidity;BME280_pressure;Samples;Min_cycle;Max_cycle;Signal;HPM_P1;HPM_P2
2022/07/04 00:00:49;;;;;;;9.73;5.23;;;14.80;1.00;;;;;;5040665;28;20971;-53
2022/07/04 00:03:15;;;;;;;11.80;4.90;;;14.80;1.00;;;;;;5032684;28;20211;-53
2022/07/04 00:05:41;;;;;;;7.90;4.70;;;14.70;99.90;;;;;;5030589;28;20480;-53
2022/07/04 00:08:07;;;;;;;10.10;5.50;;;14.80;1.00;;;;;;5030866;28;20676;-53
2022/07/04 00:10:33;;;;;;;9.83;5.00;;;14.80;1.00;;;;;;5030429;28;20199;-53
2022/07/04 00:12:58;;;;;;;10.17;5.30;;;14.70;99.90;;;;;;5030510;28;20175;-53
2022/07/04 00:15:24;;;;;;;10.90;5.17;;;14.80;99.90;;;;;;5030720;28;20189;-54
2022/07/04 00:17:50;;;;;;;7.27;4.83;;;14.80;1.00;;;;;;5030446;28;20195;-53
2022/07/04 00:20:16;;;;;;;11.43;6.50;;;14.80;99.90;;;;;;5032241;28;20218;-53
2022/07/04 00:22:42;;;;;;;10.27;5.57;;;14.80;92.40;;;;;;5030557;28;20934;-53
2022/07/04 00:25:08;;;;;;;10.13;5.93;;;14.80;16.40;;;;;;5031070;28;20215;-53
2022/07/04 00:27:34;;;;;;;6.33;5.07;;;14.80;1.00;;;;;;5032963;28;20186;-53
2022/07/04 00:29:59;;;;;;;10.00;5.77;;;14.80;1.00;;;;;;5038526;28;20438;-53
2022/07/04 00:32:25;;;;;;;13.00;6.13;;;14.80;99.90;;;;;;5030282;28;20195;-53
2022/07/04 00:34:50;;;;;;;7.73;5.53;;;14.80;1.00;;;;;;5049538;28;20179;-53
2022/07/04 00:37:16;;;;;;;10.17;5.93;;;14.80;1.00;;;;;;5050076;28;20694;-53
2022/07/04 00:39:42;;;;;;;11.50;6.00;;;14.80;99.90;;;;;;5050244;28;20539;-54
2022/07/04 00:42:08;;;;;;;11.33;6.90;;;14.70;99.90;;;;;;5039164;28;20202;-53
2022/07/04 00:44:36;;;;;;;10.90;6.90;;;14.70;99.90;;;;;;5030310;28;20707;-53
2022/07/04 00:47:07;;;;;;;9.83;6.60;;;14.70;1.00;;;;;;5037701;28;20455;-53
2022/07/04 00:49:33;;;;;;;12.83;7.23;;;14.60;1.00;;;;;;5049920;28;20448;-53
2022/07/04 00:52:00;;;;;;;16.30;7.90;;;14.70;1.00;;;;;;5048840;28;20429;-53
2022/07/04 00:54:28;;;;;;;13.70;7.73;;;14.70;99.90;;;;;;5050101;28;20440;-53
2022/07/04 00:56:55;;;;;;;14.50;8.20;;;14.70;1.00;;;;;;5048646;28;20511;-53
2022/07/04 00:59:22;;;;;;;11.60;8.47;;;14.70;1.00;;;;;;5050289;28;20468;-53
2022/07/04 01:01:48;;;;;;;11.30;8.40;;;14.60;99.90;;;;;;5041563;28;20564;-53
2022/07/04 01:04:14;;;;;;;11.30;8.50;;;14.70;1.00;;;;;;5031093;28;20437;-53
2022/07/04 01:06:40;;;;;;;17.97;9.37;;;14.70;1.00;;;;;;5031365;28;20495;-53
2022/07/04 01:09:07;;;;;;;12.03;8.97;;;14.70;99.90;;;;;;5030666;28;20454;-54
2022/07/04 01:11:32;;;;;;;14.53;8.87;;;14.70;59.30;;;;;;5031634;28;20199;-53
2022/07/04 01:13:59;;;;;;;14.87;8.63;;;14.60;1.00;;;;;;5050002;28;20424;-53
2022/07/04 01:16:25;;;;;;;13.57;9.33;;;14.50;99.90;;;;;;5036831;28;20211;-53
2022/07/04 01:18:52;;;;;;;9.33;8.00;;;14.50;1.00;;;;;;5038316;28;20444;-53
2022/07/04 01:21:18;;;;;;;14.20;10.60;;;14.40;1.60;;;;;;5050025;28;20452;-53
2022/07/04 01:23:43;;;;;;;16.30;11.80;;;14.40;78.90;;;;;;5048828;28;20435;-53
2022/07/04 01:26:09;;;;;;;16.37;12.27;;;14.40;1.00;;;;;;5050439;28;20417;-53
2022/07/04 01:28:35;;;;;;;16.63;11.97;;;14.40;1.00;;;;;;5042157;28;20187;-53
2022/07/04 01:31:01;;;;;;;19.67;13.57;;;14.40;99.90;;;;;;5030199;28;20198;-53
2022/07/04 01:33:27;;;;;;;18.70;13.10;;;14.30;99.90;;;;;;5031349;28;20230;-53
2022/07/04 01:35:53;;;;;;;20.53;14.67;;;14.30;99.90;;;;;;5046386;28;20186;-53
2022/07/04 01:38:19;;;;;;;21.30;14.90;;;14.30;99.90;;;;;;5040539;28;20190;-53
2022/07/04 01:40:45;;;;;;;25.80;15.03;;;14.20;99.90;;;;;;5034395;28;20792;-53
2022/07/04 01:43:11;;;;;;;21.60;14.20;;;14.20;99.90;;;;;;5034454;28;20163;-53
2022/07/04 01:45:39;;;;;;;24.50;14.20;;;14.20;99.90;;;;;;5034496;28;20491;-53
2022/07/04 01:48:06;;;;;;;22.67;15.70;;;14.20;99.90;;;;;;5033172;28;20174;-53
2022/07/04 01:50:31;;;;;;;26.13;15.10;;;14.20;99.90;;;;;;5052625;28;20510;-53
2022/07/04 01:52:57;;;;;;;20.90;14.73;;;14.10;99.90;;;;;;5044859;28;20468;-53
2022/07/04 01:55:22;;;;;;;25.13;16.03;;;14.20;99.90;;;;;;5033887;28;20272;-53
2022/07/04 01:57:48;;;;;;;23.97;17.00;;;14.10;99.90;;;;;;5034253;28;20599;-53
2022/07/04 02:02:58;;;;;;;32.20;17.90;;;14.10;99.90;;;;;;5046698;28;20189;-53
2022/07/04 02:05:24;;;;;;;24.43;16.80;;;14.10;99.90;;;;;;5053421;28;20420;-53
2022/07/04 02:07:50;;;;;;;24.37;16.80;;;14.00;99.90;;;;;;5048527;28;20183;-53
2022/07/04 02:10:16;;;;;;;25.40;16.63;;;14.00;99.90;;;;;;5042748;28;20439;-53
2022/07/04 02:15:31;;;;;;;33.70;19.40;;;14.00;99.90;;;;;;5033686;28;20484;-54
2022/07/04 02:17:57;;;;;;;32.00;20.63;;;14.00;99.90;;;;;;5035163;28;20897;-53
2022/07/04 02:20:23;;;;;;;24.70;18.67;;;14.00;99.90;;;;;;5052696;28;20495;-53
2022/07/04 02:22:49;;;;;;;23.60;17.60;;;13.90;99.90;;;;;;5043506;28;20535;-53
2022/07/04 02:25:15;;;;;;;25.60;18.20;;;13.90;99.90;;;;;;5032693;28;20516;-53
2022/07/04 02:27:41;;;;;;;27.60;18.50;;;13.90;99.90;;;;;;5033140;28;20953;-53
2022/07/04 02:30:07;;;;;;;27.23;17.90;;;14.00;99.90;;;;;;5032392;28;20187;-53
2022/07/04 02:32:33;;;;;;;23.27;17.47;;;14.00;99.90;;;;;;5048443;28;20891;-53
2022/07/04 02:34:59;;;;;;;32.40;18.97;;;14.00;99.90;;;;;;5053030;28;20421;-53
2022/07/04 02:37:25;;;;;;;26.47;16.53;;;14.00;99.90;;;;;;5034146;28;20445;-53
2022/07/04 02:39:50;;;;;;;23.03;16.73;;;14.00;99.90;;;;;;5032689;28;20198;-53
2022/07/04 02:42:16;;;;;;;21.33;16.50;;;14.00;99.90;;;;;;5032472;28;20585;-53
2022/07/04 02:44:43;;;;;;;23.43;16.07;;;14.00;99.90;;;;;;5032612;28;20234;-53
2022/07/04 02:47:08;;;;;;;25.87;15.80;;;14.00;99.90;;;;;;5037225;28;20210;-53
2022/07/04 02:49:34;;;;;;;23.33;14.80;;;13.90;99.90;;;;;;5050751;28;20478;-53
2022/07/04 02:51:59;;;;;;;25.47;15.60;;;14.00;99.90;;;;;;5045514;28;20217;-53
2022/07/04 02:54:25;;;;;;;19.43;14.50;;;13.90;99.90;;;;;;5032022;28;20982;-54
2022/07/04 02:56:51;;;;;;;29.63;15.70;;;13.90;99.90;;;;;;5037046;28;20237;-53
2022/07/04 02:59:16;;;;;;;25.23;16.73;;;14.00;99.90;;;;;;5052103;28;20319;-53
2022/07/04 03:01:42;;;;;;;27.23;15.57;;;14.00;99.90;;;;;;5035411;28;20211;-53
2022/07/04 03:04:07;;;;;;;17.60;14.30;;;14.00;99.90;;;;;;5047682;28;20663;-53
2022/07/04 03:06:33;;;;;;;21.17;13.63;;;14.00;99.90;;;;;;5044562;28;20265;-53
2022/07/04 03:08:59;;;;;;;23.17;15.40;;;13.90;99.90;;;;;;5049890;28;20186;-53
2022/07/04 03:11:24;;;;;;;26.43;16.00;;;13.90;99.90;;;;;;5052217;28;20243;-53
2022/07/04 03:13:50;;;;;;;24.30;16.03;;;14.00;99.90;;;;;;5038477;28;20194;-53
2022/07/04 03:16:16;;;;;;;20.67;14.47;;;14.00;99.90;;;;;;5032902;28;20276;-53
2022/07/04 03:18:41;;;;;;;26.80;16.37;;;13.90;99.90;;;;;;5037454;28;20199;-54
2022/07/04 03:21:07;;;;;;;30.70;17.30;;;13.90;99.90;;;;;;5034863;28;20669;-52
2022/07/04 03:23:34;;;;;;;23.60;16.07;;;13.90;99.90;;;;;;5038162;28;20186;-53
2022/07/04 03:26:00;;;;;;;24.17;16.20;;;14.00;99.90;;;;;;5032500;28;20179;-53
2022/07/04 03:28:27;;;;;;;25.87;16.20;;;14.00;99.90;;;;;;5040582;28;20440;-53
2022/07/04 03:30:53;;;;;;;23.87;15.97;;;14.00;99.90;;;;;;5049510;28;20453;-53
2022/07/04 03:33:18;;;;;;;24.90;17.70;;;14.00;99.90;;;;;;5031791;28;20533;-53
2022/07/04 03:35:44;;;;;;;24.83;17.00;;;14.00;99.90;;;;;;5031917;28;20627;-53
2022/07/04 03:38:10;;;;;;;23.20;17.50;;;14.00;99.90;;;;;;5032479;28;20225;-53
2022/07/04 03:40:35;;;;;;;23.07;16.90;;;14.00;99.90;;;;;;5041794;28;20210;-53
2022/07/04 03:43:02;;;;;;;24.20;17.30;;;14.00;99.90;;;;;;5038967;28;20201;-54
2022/07/04 03:45:29;;;;;;;24.50;17.57;;;14.00;99.90;;;;;;5049783;28;20666;-54
2022/07/04 03:47:54;;;;;;;28.00;17.90;;;14.00;99.90;;;;;;5050627;28;20937;-53
2022/07/04 03:50:20;;;;;;;28.10;18.20;;;14.00;99.90;;;;;;5049719;28;20444;-53
2022/07/04 03:52:46;;;;;;;27.00;17.87;;;14.00;99.90;;;;;;5042494;28;20198;-53
2022/07/04 03:55:11;;;;;;;26.40;18.43;;;14.00;99.90;;;;;;5042552;28;20199;-53
2022/07/04 03:57:37;;;;;;;31.10;18.40;;;14.00;99.90;;;;;;5030950;28;20606;-53
2022/07/04 04:00:04;;;;;;;25.00;17.80;;;14.10;99.90;;;;;;5034970;28;20205;-53
2022/07/04 04:02:29;;;;;;;27.50;17.33;;;14.10;99.90;;;;;;5032294;28;20179;-53
2022/07/04 04:07:39;;;;;;;29.83;16.83;;;14.20;99.90;;;;;;5031623;28;20210;-53
2022/07/04 04:10:06;;;;;;;23.90;17.10;;;14.20;99.90;;;;;;5031535;28;20456;-53
2022/07/04 04:12:31;;;;;;;24.43;17.03;;;14.20;99.90;;;;;;5030647;28;20182;-53
2022/07/04 04:14:57;;;;;;;24.40;16.77;;;14.30;99.90;;;;;;5039759;28;20487;-53
2022/07/04 04:17:23;;;;;;;24.80;15.20;;;14.30;99.90;;;;;;5031403;28;20273;-53
2022/07/04 04:19:48;;;;;;;20.97;13.93;;;14.40;99.90;;;;;;5046481;28;20232;-53
2022/07/04 04:22:14;;;;;;;19.73;14.60;;;14.40;99.90;;;;;;5048108;28;20611;-53
2022/07/04 04:24:40;;;;;;;19.60;14.00;;;14.40;99.90;;;;;;5039029;28;20194;-53
2022/07/04 04:27:06;;;;;;;20.90;13.30;;;14.50;99.90;;;;;;5032647;28;20543;-53
2022/07/04 04:29:31;;;;;;;20.80;14.10;;;14.50;99.90;;;;;;5050985;28;20214;-52
2022/07/04 04:31:57;;;;;;;16.50;11.73;;;14.60;99.90;;;;;;5035046;28;20445;-53
2022/07/04 04:34:23;;;;;;;18.00;10.90;;;14.70;99.90;;;;;;5050503;28;20186;-53
2022/07/04 04:36:48;;;;;;;15.40;11.60;;;14.70;99.90;;;;;;5033044;28;22135;-54
2022/07/04 04:39:14;;;;;;;14.40;10.20;;;14.80;99.90;;;;;;5049685;28;20229;-53
2022/07/04 04:41:40;;;;;;;16.10;10.47;;;14.90;99.90;;;;;;5039976;28;20229;-53
2022/07/04 04:44:06;;;;;;;17.27;9.97;;;15.00;99.90;;;;;;5048292;28;20182;-53
2022/07/04 04:46:32;;;;;;;20.03;10.67;;;15.10;99.90;;;;;;5048933;28;20197;-53
2022/07/04 04:48:57;;;;;;;15.93;11.10;;;15.30;99.90;;;;;;5050354;28;20409;-53
2022/07/04 04:51:23;;;;;;;18.43;11.80;;;15.40;99.90;;;;;;5038958;28;20191;-53
2022/07/04 04:53:49;;;;;;;15.30;11.43;;;15.60;99.90;;;;;;5043587;28;20225;-53
2022/07/04 04:56:14;;;;;;;15.10;9.57;;;15.70;99.90;;;;;;5046477;28;20275;-53
2022/07/04 04:58:40;;;;;;;16.43;11.30;;;15.80;99.90;;;;;;5050528;28;20194;-53
2022/07/04 05:01:06;;;;;;;14.57;10.07;;;15.80;1.00;;;;;;5049159;28;20214;-53
2022/07/04 05:03:31;;;;;;;18.57;10.77;;;15.90;99.90;;;;;;5049942;28;20189;-53
2022/07/04 05:05:57;;;;;;;19.00;10.33;;;16.00;1.00;;;;;;5042703;28;20202;-53
2022/07/04 05:08:27;;;;;;;18.17;9.90;;;16.10;1.00;;;;;;5029899;28;20175;-53
2022/07/04 05:10:53;;;;;;;16.73;9.53;;;16.20;1.00;;;;;;5044832;28;20627;-53
2022/07/04 05:13:19;;;;;;;11.27;9.20;;;16.20;1.00;;;;;;5050867;28;20469;-54
2022/07/04 05:15:46;;;;;;;15.87;9.37;;;16.30;1.00;;;;;;5050894;28;20261;-54
2022/07/04 05:18:13;;;;;;;13.83;9.17;;;16.40;1.00;;;;;;5052805;28;20479;-56
2022/07/04 05:20:39;;;;;;;16.27;8.90;;;16.50;99.90;;;;;;5051333;28;20810;-55
2022/07/04 05:23:06;;;;;;;8.97;7.20;;;16.50;99.90;;;;;;5053335;28;20427;-53
2022/07/04 05:25:32;;;;;;;9.03;6.77;;;16.50;99.90;;;;;;5052662;28;20221;-53
2022/07/04 05:27:58;;;;;;;7.93;5.90;;;16.50;99.90;;;;;;5052350;28;20520;-54
2022/07/04 05:30:23;;;;;;;6.03;4.97;;;16.70;99.90;;;;;;5032351;28;20473;-53
2022/07/04 05:32:49;;;;;;;9.63;6.00;;;16.80;99.90;;;;;;5044882;28;20187;-53
2022/07/04 05:35:14;;;;;;;9.60;5.63;;;16.90;99.90;;;;;;5036779;28;20194;-53
2022/07/04 05:37:40;;;;;;;8.43;5.30;;;17.00;99.90;;;;;;5050470;28;20183;-54
2022/07/04 05:40:06;;;;;;;5.90;4.60;;;17.10;99.90;;;;;;5042478;28;20199;-53
2022/07/04 05:42:33;;;;;;;4.23;3.83;;;17.20;99.90;;;;;;5036518;28;20201;-52
2022/07/04 05:44:59;;;;;;;9.10;4.90;;;17.40;99.90;;;;;;5049774;28;20519;-52
2022/07/04 05:47:24;;;;;;;7.10;4.03;;;17.60;99.90;;;;;;5046494;28;20528;-52
2022/07/04 05:49:51;;;;;;;7.73;3.93;;;17.70;99.90;;;;;;5036195;28;20186;-53
2022/07/04 05:52:16;;;;;;;7.40;3.60;;;17.80;99.90;;;;;;5043737;28;20198;-53
2022/07/04 05:54:42;;;;;;;8.23;3.70;;;18.00;99.90;;;;;;5048503;28;20448;-53
2022/07/04 05:57:08;;;;;;;5.73;3.47;;;18.20;99.90;;;;;;5036024;28;20234;-53
2022/07/04 05:59:34;;;;;;;9.40;6.80;;;18.40;99.90;;;;;;5041486;28;20194;-52
2022/07/04 06:02:00;;;;;;;4.53;3.80;;;18.50;99.90;;;;;;5050774;28;20214;-53
2022/07/04 06:04:26;;;;;;;7.17;3.47;;;18.60;99.90;;;;;;5052568;28;20443;-53
2022/07/04 06:06:51;;;;;;;5.23;2.73;;;18.90;99.90;;;;;;5059196;28;20206;-53
2022/07/04 06:09:17;;;;;;;6.20;3.13;;;19.10;99.90;;;;;;5056308;28;20194;-52
2022/07/04 06:11:43;;;;;;;9.73;2.90;;;18.90;99.90;;;;;;5053527;28;20187;-52
2022/07/04 06:14:09;;;;;;;6.70;3.10;;;18.50;99.90;;;;;;5060094;28;20217;-52
2022/07/04 06:16:34;;;;;;;3.27;2.70;;;18.40;99.90;;;;;;5040409;28;20210;-52
2022/07/04 06:19:00;;;;;;;3.40;2.50;;;18.30;99.90;;;;;;5053640;28;20194;-53
2022/07/04 06:21:25;;;;;;;6.70;2.67;;;18.50;99.90;;;;;;5052953;28;20225;-57
2022/07/04 06:23:51;;;;;;;6.07;2.33;;;18.50;99.90;;;;;;5052808;28;20696;-52
2022/07/04 06:26:17;;;;;;;3.43;2.17;;;18.60;99.90;;;;;;5055221;28;20189;-53
2022/07/04 06:28:42;;;;;;;6.30;2.37;;;18.80;99.90;;;;;;5053627;28;20186;-56
2022/07/04 06:31:08;;;;;;;6.20;2.73;;;19.00;99.90;;;;;;5053046;28;20197;-54
2022/07/04 06:35:44;;;;;;;4.67;2.47;;;19.40;99.90;;;;;;5053081;28;20601;-53
2022/07/04 06:36:19;;;;;;;6.03;2.03;;;19.50;99.90;;;;;;5044670;28;20456;-53
2022/07/04 06:38:45;;;;;;;6.70;2.53;;;19.70;99.90;;;;;;5035078;28;21080;-53
2022/07/04 06:41:11;;;;;;;3.57;2.23;;;20.00;99.90;;;;;;5053774;28;20222;-53
2022/07/04 06:43:36;;;;;;;3.80;2.20;;;20.20;99.90;;;;;;5052464;28;20186;-53
2022/07/04 06:46:02;;;;;;;5.43;2.03;;;19.80;99.90;;;;;;5053234;28;20182;-53
2022/07/04 06:48:27;;;;;;;4.67;2.40;;;19.60;99.90;;;;;;5052525;28;20183;-53
2022/07/04 06:50:53;;;;;;;7.13;2.67;;;19.70;99.90;;;;;;5052204;28;20259;-53
2022/07/04 06:53:19;;;;;;;7.00;2.30;;;19.90;99.90;;;;;;5052907;28;20185;-53
2022/07/04 06:55:44;;;;;;;5.57;2.57;;;20.40;99.90;;;;;;5051018;28;20280;-62
2022/07/04 06:58:10;;;;;;;4.73;2.03;;;20.90;99.90;;;;;;5033018;28;20256;-53
2022/07/04 07:00:36;;;;;;;4.83;2.43;;;21.10;99.90;;;;;;5032783;28;20581;-54
2022/07/04 07:03:03;;;;;;;3.27;2.43;;;20.80;99.90;;;;;;5032420;28;20183;-53
2022/07/04 07:05:29;;;;;;;2.57;2.00;;;20.50;99.90;;;;;;5032994;28;20782;-53
2022/07/04 07:07:55;;;;;;;5.33;2.23;;;20.10;99.90;;;;;;5044586;28;20443;-72
2022/07/04 07:10:21;;;;;;;6.10;2.20;;;20.20;99.90;;;;;;5044911;28;21001;-53
2022/07/04 07:12:47;;;;;;;5.53;2.00;;;20.30;99.90;;;;;;5051235;28;20209;-53
2022/07/04 07:15:13;;;;;;;3.50;1.70;;;20.10;99.90;;;;;;5049983;28;20448;-53
2022/07/04 07:17:40;;;;;;;3.90;1.77;;;20.10;99.90;;;;;;5050863;28;20436;-53
2022/07/04 07:20:07;;;;;;;4.73;2.27;;;20.20;99.90;;;;;;5048662;28;20473;-53
2022/07/04 07:22:32;;;;;;;2.67;1.40;;;20.60;99.90;;;;;;5032388;28;20454;-53
2022/07/04 07:24:58;;;;;;;4.13;1.57;;;21.00;99.90;;;;;;5033495;28;20458;-53
2022/07/04 07:27:24;;;;;;;6.33;1.40;;;21.30;99.90;;;;;;5047569;28;20197;-53
2022/07/04 07:29:49;;;;;;;4.00;2.17;;;21.80;99.90;;;;;;5032168;28;20372;-53
2022/07/04 07:32:15;;;;;;;3.47;1.40;;;21.90;99.90;;;;;;5051357;28;20201;-53
2022/07/04 07:34:40;;;;;;;5.13;1.40;;;21.80;99.90;;;;;;5050835;28;20182;-53
2022/07/04 07:37:07;;;;;;;3.93;1.40;;;21.80;99.90;;;;;;5046409;28;20204;-53
2022/07/04 07:39:33;;;;;;;6.63;1.40;;;21.90;99.90;;;;;;5050717;28;20221;-53
2022/07/04 07:41:58;;;;;;;5.03;1.80;;;22.30;99.90;;;;;;5034710;28;20551;-53
2022/07/04 07:44:24;;;;;;;4.57;1.87;;;22.70;99.90;;;;;;5032276;28;20422;-53
2022/07/04 07:46:50;;;;;;;2.00;1.50;;;22.90;99.90;;;;;;5045647;28;20556;-53
2022/07/04 07:49:15;;;;;;;8.47;1.70;;;23.10;99.90;;;;;;5051931;28;20405;-56
2022/07/04 07:51:41;;;;;;;2.90;1.53;;;23.10;99.90;;;;;;5051393;28;20202;-53
2022/07/04 07:54:07;;;;;;;2.50;1.83;;;22.50;99.90;;;;;;5050626;28;20197;-53
2022/07/04 07:56:32;;;;;;;7.83;1.90;;;21.70;99.90;;;;;;5051574;28;20230;-53
2022/07/04 07:58:58;;;;;;;3.50;1.73;;;21.20;99.90;;;;;;5050487;28;20194;-54
2022/07/04 08:01:24;;;;;;;7.40;1.30;;;21.10;99.90;;;;;;5051945;28;20237;-53
2022/07/04 08:06:34;;;;;;;6.63;1.73;;;22.20;99.90;;;;;;5052579;28;20169;-53
2022/07/04 08:08:59;;;;;;;3.50;1.47;;;22.10;99.90;;;;;;5053159;28;20397;-53
2022/07/04 08:11:25;;;;;;;2.37;1.37;;;22.30;99.90;;;;;;5033090;28;20198;-53
2022/07/04 08:13:51;;;;;;;2.50;1.53;;;22.50;99.90;;;;;;5032977;28;20410;-51
2022/07/04 08:16:17;;;;;;;6.73;1.60;;;22.80;99.90;;;;;;5034152;28;20641;-52
2022/07/04 08:18:43;;;;;;;2.73;1.53;;;22.80;99.90;;;;;;5033059;28;20194;-52
2022/07/04 08:21:09;;;;;;;6.97;1.63;;;23.10;99.90;;;;;;5048328;28;20236;-52
2022/07/04 08:23:35;;;;;;;4.10;1.40;;;23.20;99.90;;;;;;5053341;28;20190;-51
2022/07/04 08:26:01;;;;;;;1.67;1.47;;;22.90;99.90;;;;;;5037022;28;20450;-52
2022/07/04 08:28:27;;;;;;;3.47;1.60;;;22.60;99.90;;;;;;5032394;28;20432;-52
2022/07/04 08:30:53;;;;;;;2.00;1.20;;;23.30;99.90;;;;;;5043519;28;20534;-52
2022/07/04 08:33:19;;;;;;;5.00;1.60;;;24.00;99.90;;;;;;5050577;28;20454;-51
2022/07/04 08:35:45;;;;;;;7.10;1.87;;;24.40;99.90;;;;;;5048451;28;20516;-51
2022/07/04 08:38:11;;;;;;;4.70;1.80;;;24.10;99.90;;;;;;5035333;28;20296;-53
2022/07/04 08:40:37;;;;;;;1.80;1.30;;;23.40;99.90;;;;;;5031480;28;20207;-51
2022/07/04 08:43:03;;;;;;;3.60;1.33;;;23.10;99.90;;;;;;5033363;28;20405;-54
2022/07/04 08:45:34;;;;;;;2.40;1.53;;;23.20;99.90;;;;;;5051822;28;20182;-54
2022/07/04 08:48:10;;;;;;;2.90;1.10;;;23.10;99.90;;;;;;5051688;28;20420;-52
2022/07/04 08:50:39;;;;;;;4.30;1.20;;;23.50;99.90;;;;;;5051937;28;20467;-53
2022/07/04 08:53:12;;;;;;;5.47;1.30;;;24.30;99.90;;;;;;5050640;28;20424;-52
2022/07/04 08:58:29;;;;;;;3.00;1.80;;;23.60;99.90;;;;;;5051600;28;20464;-51
2022/07/04 09:01:01;;;;;;;3.13;1.50;;;23.50;99.90;;;;;;5051395;28;20828;-53
2022/07/04 09:03:28;;;;;;;3.40;1.30;;;24.00;99.90;;;;;;5050420;28;21199;-52
2022/07/04 09:05:55;;;;;;;2.23;1.50;;;23.70;99.90;;;;;;5050702;28;20427;-52
2022/07/04 09:08:21;;;;;;;5.10;1.60;;;23.80;99.90;;;;;;5049722;28;20413;-52
2022/07/04 09:10:48;;;;;;;2.03;1.30;;;24.20;99.90;;;;;;5050361;28;21021;-54
2022/07/04 09:13:14;;;;;;;4.00;1.10;;;24.70;99.90;;;;;;5050289;28;21046;-52
2022/07/04 09:15:45;;;;;;;3.50;1.37;;;25.30;99.90;;;;;;5049721;28;20952;-52
2022/07/04 09:18:34;;;;;;;4.07;1.27;;;24.90;99.90;;;;;;5049999;28;20435;-51
2022/07/04 09:21:08;;;;;;;1.47;1.10;;;24.60;99.90;;;;;;5043633;28;20538;-52
2022/07/04 09:23:36;;;;;;;4.30;1.30;;;24.00;99.90;;;;;;5050289;28;20397;-55
2022/07/04 09:26:07;;;;;;;3.53;1.20;;;24.30;99.90;;;;;;5050994;28;20819;-55
2022/07/04 09:28:33;;;;;;;2.30;1.20;;;25.30;99.90;;;;;;5050352;28;20417;-55
2022/07/04 09:30:59;;;;;;;2.80;1.60;;;25.80;99.90;;;;;;5032730;28;20457;-55
2022/07/04 09:34:04;;;;;;;2.07;1.30;;;25.70;99.90;;;;;;5048686;28;20531;-55
2022/07/04 09:36:35;;;;;;;2.43;1.10;;;25.60;99.90;;;;;;5017092;28;20206;-55
2022/07/04 09:39:18;;;;;;;3.03;1.00;;;25.40;99.90;;;;;;5028538;28;20434;-55
2022/07/04 09:41:59;;;;;;;3.50;1.70;;;24.70;99.90;;;;;;5032998;28;20487;-55
2022/07/04 09:44:45;;;;;;;3.30;1.60;;;24.10;99.90;;;;;;5050267;28;20783;-56
2022/07/04 09:47:28;;;;;;;6.53;1.43;;;24.00;99.90;;;;;;5049221;28;20440;-54
2022/07/04 09:50:13;;;;;;;2.57;1.33;;;24.80;99.90;;;;;;5048793;28;20431;-56
2022/07/04 09:52:56;;;;;;;1.30;1.00;;;25.80;99.90;;;;;;5039557;28;20445;-55
2022/07/04 09:55:24;;;;;;;5.90;1.77;;;26.30;99.90;;;;;;5030054;28;20480;-55
2022/07/04 09:57:50;;;;;;;1.93;1.00;;;25.30;99.90;;;;;;5041646;28;20518;-54
2022/07/04 10:00:17;;;;;;;1.23;1.13;;;25.00;99.90;;;;;;5047435;28;20445;-54
2022/07/04 10:02:44;;;;;;;1.67;1.13;;;25.40;99.90;;;;;;5039198;28;20445;-56
2022/07/04 10:05:09;;;;;;;4.70;1.20;;;26.30;99.90;;;;;;5051924;28;20434;-55
2022/07/04 10:07:37;;;;;;;1.93;1.10;;;26.60;99.90;;;;;;5052705;28;20918;-55
2022/07/04 10:10:33;;;;;;;1.57;1.00;;;26.70;99.90;;;;;;5051747;28;20580;-55
2022/07/04 10:13:04;;;;;;;3.37;1.27;;;26.50;99.90;;;;;;5049005;28;21827;-55
2022/07/04 10:15:31;;;;;;;4.97;1.27;;;25.80;99.90;;;;;;5044238;28;20455;-55
2022/07/04 10:17:58;;;;;;;3.10;1.60;;;25.80;99.90;;;;;;5051969;28;20428;-56
2022/07/04 10:20:23;;;;;;;2.47;1.27;;;25.60;99.90;;;;;;5033382;28;20503;-55
2022/07/04 10:22:49;;;;;;;1.47;1.33;;;24.90;99.90;;;;;;5033798;28;20473;-55
2022/07/04 10:25:15;;;;;;;2.87;1.27;;;25.20;99.90;;;;;;5033550;28;20179;-56
2022/07/04 10:27:42;;;;;;;4.47;1.13;;;25.30;99.90;;;;;;5051786;28;20236;-55
2022/07/04 10:30:14;;;;;;;3.10;1.30;;;25.50;99.90;;;;;;5053503;28;20408;-55
2022/07/04 10:32:43;;;;;;;1.73;1.00;;;25.40;99.90;;;;;;5053139;28;20953;-57
2022/07/04 10:35:11;;;;;;;3.37;0.93;;;26.10;99.90;;;;;;5053329;28;20878;-55
2022/07/04 10:38:07;;;;;;;1.70;1.00;;;26.10;99.90;;;;;;5051936;28;20452;-55
2022/07/04 10:40:43;;;;;;;1.10;1.00;;;25.30;99.90;;;;;;5052956;28;20452;-55
2022/07/04 10:46:12;;;;;;;1.63;1.00;;;24.70;99.90;;;;;;5034873;28;20798;-55
2022/07/04 10:48:51;;;;;;;1.87;1.10;;;25.60;99.90;;;;;;5033373;28;20942;-55
2022/07/04 10:51:47;;;;;;;2.60;1.10;;;26.50;99.90;;;;;;5032678;28;20760;-56
2022/07/04 10:54:31;;;;;;;2.80;1.10;;;27.00;99.90;;;;;;5045183;28;20868;-56
2022/07/04 10:57:14;;;;;;;3.60;1.00;;;26.50;99.90;;;;;;5032386;28;20564;-56
2022/07/04 10:59:42;;;;;;;3.00;1.00;;;26.10;99.90;;;;;;5043763;28;20582;-56
2022/07/04 11:02:08;;;;;;;2.33;1.10;;;25.70;99.90;;;;;;5050898;28;20460;-55
2022/07/04 11:05:00;;;;;;;1.53;1.00;;;25.30;99.90;;;;;;5052340;28;20412;-56
2022/07/04 11:07:35;;;;;;;3.13;1.60;;;24.70;99.90;;;;;;5055069;28;20183;-55
2022/07/04 11:12:56;;;;;;;4.13;1.20;;;24.20;99.90;;;;;;5063893;28;20506;-55
2022/07/04 11:15:25;;;;;;;2.57;1.30;;;23.70;99.90;;;;;;5051871;28;20475;-55
2022/07/04 11:17:51;;;;;;;2.60;1.30;;;23.10;99.90;;;;;;5037419;28;20457;-55
2022/07/04 11:20:18;;;;;;;1.20;1.00;;;22.70;99.90;;;;;;5036003;28;20938;-55
2022/07/04 11:22:44;;;;;;;2.90;1.20;;;22.30;99.90;;;;;;5051555;28;20413;-52
2022/07/04 11:25:13;;;;;;;6.00;1.10;;;21.90;99.90;;;;;;5046497;28;21015;-58
2022/07/04 11:27:39;;;;;;;3.60;1.13;;;21.60;99.90;;;;;;5032272;28;20171;-52
2022/07/04 11:30:07;;;;;;;4.83;1.60;;;21.50;99.90;;;;;;5032376;28;21000;-52
2022/07/04 11:32:34;;;;;;;2.90;1.30;;;21.40;99.90;;;;;;5033002;28;20422;-52
2022/07/04 11:35:00;;;;;;;3.40;1.30;;;21.50;99.90;;;;;;5047138;28;20532;-51
2022/07/04 11:37:26;;;;;;;1.67;1.27;;;21.60;99.90;;;;;;5044410;28;20560;-52
2022/07/04 11:45:47;;;;;;;2.73;1.23;;;25.80;99.90;;;;;;5042887;28;20829;-52
2022/07/04 11:48:33;;;;;;;2.50;1.30;;;26.80;99.90;;;;;;5040628;28;20448;-52
2022/07/04 11:50:59;;;;;;;1.53;1.30;;;26.20;99.90;;;;;;5031747;28;20561;-52
2022/07/04 11:53:24;;;;;;;7.37;1.00;;;25.20;99.90;;;;;;5045268;28;20455;-52
2022/07/04 11:55:58;;;;;;;3.07;1.30;;;24.30;99.90;;;;;;5034178;28;20583;-57
2022/07/04 11:58:24;;;;;;;3.90;1.30;;;23.80;99.90;;;;;;5035363;28;20660;-52
2022/07/04 12:00:49;;;;;;;1.20;1.10;;;24.50;99.90;;;;;;5049109;28;20479;-53
2022/07/04 12:03:15;;;;;;;1.77;1.17;;;25.60;99.90;;;;;;5031607;28;20441;-52
2022/07/04 12:05:43;;;;;;;8.07;1.47;;;26.60;99.90;;;;;;5031210;28;20163;-52
2022/07/04 12:08:09;;;;;;;3.93;1.30;;;27.30;99.90;;;;;;5030597;28;20433;-52
2022/07/04 12:10:36;;;;;;;2.00;1.27;;;27.90;99.90;;;;;;5031232;28;20410;-53
2022/07/04 12:13:09;;;;;;;1.93;1.33;;;28.60;99.90;;;;;;5042559;28;20547;-52
2022/07/04 12:15:46;;;;;;;2.77;1.20;;;28.80;99.90;;;;;;5047431;28;20420;-52
2022/07/04 12:18:24;;;;;;;4.40;1.20;;;28.20;99.90;;;;;;5046146;28;20462;-52
2022/07/04 12:20:52;;;;;;;6.00;1.70;;;27.10;99.90;;;;;;5050819;28;20478;-52
2022/07/04 12:23:25;;;;;;;1.50;1.23;;;25.70;99.90;;;;;;5032291;28;20437;-52
2022/07/04 12:25:51;;;;;;;5.60;1.40;;;24.70;99.90;;;;;;5031431;28;21077;-52
2022/07/04 12:28:18;;;;;;;6.20;1.57;;;24.20;99.90;;;;;;5032085;28;21175;-52
2022/07/04 12:30:55;;;;;;;2.73;1.37;;;23.80;99.90;;;;;;5041507;28;21107;-52
2022/07/04 12:33:26;;;;;;;2.17;1.53;;;23.60;99.90;;;;;;5030828;28;20444;-52
2022/07/04 12:36:00;;;;;;;4.20;2.10;;;23.50;99.90;;;;;;5040367;28;20449;-52
2022/07/04 12:38:29;;;;;;;3.43;1.73;;;23.50;99.90;;;;;;5047118;28;21111;-53
2022/07/04 12:40:58;;;;;;;3.20;1.43;;;23.80;99.90;;;;;;5044606;28;21087;-52
2022/07/04 12:43:26;;;;;;;4.63;1.60;;;24.60;99.90;;;;;;5045573;28;20491;-52
2022/07/04 12:45:54;;;;;;;1.33;1.10;;;25.80;99.90;;;;;;5048541;28;20420;-53
2022/07/04 12:48:23;;;;;;;4.67;1.40;;;27.10;99.90;;;;;;5046973;28;20527;-53
2022/07/04 12:50:50;;;;;;;4.00;1.27;;;27.80;99.90;;;;;;5043695;28;20495;-53
2022/07/04 12:53:17;;;;;;;3.13;1.33;;;28.00;99.90;;;;;;5041932;28;20437;-52
2022/07/04 12:55:43;;;;;;;2.10;1.40;;;27.50;99.90;;;;;;5049619;28;20842;-52
2022/07/04 13:52:44;;;;;;;4.37;1.83;;;22.20;99.90;;;;;;6088462;23;20480;-55
2022/07/04 13:55:10;;;;;;;3.47;1.73;;;22.00;99.90;;;;;;4948968;29;20488;-57
2022/07/04 13:57:37;;;;;;;2.40;1.50;;;21.80;99.90;;;;;;4954354;28;20507;-56
2022/07/04 14:00:04;;;;;;;4.53;1.80;;;21.70;99.90;;;;;;4954557;28;20834;-55
2022/07/04 14:02:30;;;;;;;3.87;1.87;;;21.70;99.90;;;;;;4952990;28;20472;-56